createdAt,value
2018-11-05T00:01:25.288Z,78.10
2018-11-05T00:03:53.946Z,68.07
2018-11-05T00:06:28.921Z,73.00
2018-11-05T00:08:57.432Z,71.83
2018-11-05T00:11:30.301Z,68.67
2018-11-05T00:13:58.904Z,70.60
2018-11-05T00:16:32.499Z,67.97
2018-11-05T00:19:00.748Z,62.50
2018-11-05T00:21:33.971Z,71.57
2018-11-05T00:24:02.840Z,65.00
2018-11-05T00:26:36.169Z,67.17
2018-11-05T00:29:04.913Z,70.23
2018-11-05T00:34:06.452Z,67.40
2018-11-05T00:36:35.085Z,68.60
2018-11-05T00:39:04.683Z,70.20
2018-11-05T00:41:33.288Z,71.27
2018-11-05T00:44:01.879Z,71.57
2018-11-05T00:46:30.407Z,79.47
2018-11-05T00:48:58.647Z,73.20
2018-11-05T00:51:27.225Z,74.47
2018-11-05T00:53:56.129Z,82.03
2018-11-05T00:56:25.097Z,81.93
2018-11-05T00:58:55.877Z,72.80
2018-11-05T01:01:24.837Z,79.27
2018-11-05T01:03:58.219Z,83.03
2018-11-05T01:06:26.537Z,76.17
2018-11-05T01:09:01.159Z,80.07
2018-11-05T01:11:29.798Z,79.47
2018-11-05T01:14:02.356Z,71.30
2018-11-05T01:16:31.310Z,74.67
2018-11-05T01:18:59.892Z,80.33
2018-11-05T01:21:28.485Z,68.97
2018-11-05T01:23:57.317Z,82.17
2018-11-05T01:26:25.640Z,72.07
2018-11-05T01:28:54.224Z,76.97
2018-11-05T01:33:52.149Z,71.27
2018-11-05T01:36:20.784Z,62.23
2018-11-05T01:38:49.392Z,65.97
2018-11-05T01:41:18.890Z,73.07
2018-11-05T01:43:47.545Z,75.60
2018-11-05T01:46:20.847Z,71.07
2018-11-05T01:48:49.438Z,70.30
2018-11-05T01:51:22.323Z,68.20
2018-11-05T01:53:51.048Z,69.37
2018-11-05T01:56:24.389Z,69.07
2018-11-05T01:58:52.784Z,71.33
2018-11-05T02:01:26.332Z,66.97
2018-11-05T02:03:54.940Z,77.53
2018-11-05T02:06:27.614Z,75.70
2018-11-05T02:08:56.329Z,71.13
2018-11-05T02:11:24.996Z,75.30
2018-11-05T02:13:53.720Z,75.83
2018-11-05T02:16:22.250Z,68.87
2018-11-05T02:18:50.849Z,73.30
2018-11-05T02:21:19.457Z,67.57
2018-11-05T02:23:48.175Z,73.57
2018-11-05T02:26:16.760Z,75.70
2018-11-05T02:28:45.388Z,67.67
2018-11-05T02:31:14.358Z,75.03
2018-11-05T02:33:44.248Z,70.17
2018-11-05T02:36:13.829Z,71.53
2018-11-05T02:38:46.827Z,74.03
2018-11-05T02:41:15.464Z,71.17
2018-11-05T02:43:48.223Z,69.50
2018-11-05T02:46:17.497Z,68.37
2018-11-05T02:48:50.354Z,71.57
2018-11-05T02:51:18.960Z,70.37
2018-11-05T02:53:51.802Z,68.90
2018-11-05T02:56:20.544Z,74.60
2018-11-05T02:58:48.795Z,71.57
2018-11-05T03:01:17.649Z,68.83
2018-11-05T03:03:45.900Z,66.37
2018-11-05T03:06:14.535Z,65.53
2018-11-05T03:08:43.050Z,70.80
2018-11-05T03:11:11.680Z,71.23
2018-11-05T03:13:40.318Z,72.33
2018-11-05T03:16:09.189Z,72.57
2018-11-05T03:18:37.529Z,70.63
2018-11-05T03:21:10.621Z,65.73
2018-11-05T03:23:39.144Z,73.57
2018-11-05T03:26:12.321Z,67.87
2018-11-05T03:28:40.580Z,65.93
2018-11-05T03:31:14.866Z,70.67
2018-11-05T03:33:43.244Z,70.37
2018-11-05T03:36:18.844Z,69.60
2018-11-05T03:38:48.426Z,70.13
2018-11-05T03:41:29.641Z,68.93
2018-11-05T03:43:58.719Z,69.70
2018-11-05T03:46:26.990Z,67.53
2018-11-05T03:48:55.249Z,60.07
2018-11-05T03:51:26.681Z,64.33
2018-11-05T03:53:55.328Z,67.63
2018-11-05T03:56:28.375Z,65.00
2018-11-05T03:58:56.896Z,63.47
2018-11-05T04:01:30.549Z,65.40
2018-11-05T04:03:59.157Z,69.93
2018-11-05T04:06:32.757Z,66.70
2018-11-05T04:09:01.036Z,57.13
2018-11-05T04:11:34.531Z,66.53
2018-11-05T04:14:03.187Z,72.57
2018-11-05T04:16:35.967Z,70.90
2018-11-05T04:19:05.291Z,67.53
2018-11-05T04:21:39.235Z,71.80
2018-11-05T04:24:08.219Z,73.73
2018-11-05T04:26:41.400Z,68.97
2018-11-05T04:29:10.389Z,70.80
2018-11-05T04:31:43.735Z,68.57
2018-11-05T04:34:13.017Z,64.27
2018-11-05T04:36:41.641Z,71.87
2018-11-05T04:39:12.820Z,60.00
2018-11-05T04:41:41.394Z,60.03
2018-11-05T04:44:10.193Z,62.43
2018-11-05T04:46:39.314Z,58.70
2018-11-05T04:49:08.384Z,62.93
2018-11-05T04:51:36.623Z,61.27
2018-11-05T04:54:05.984Z,58.90
2018-11-05T04:56:34.540Z,62.40
2018-11-05T04:59:03.143Z,60.27
2018-11-05T05:01:31.761Z,54.63
2018-11-05T05:04:04.315Z,56.37
2018-11-05T05:06:32.924Z,58.43
2018-11-05T05:09:06.250Z,55.30
2018-11-05T05:11:34.761Z,58.67
2018-11-05T05:14:04.017Z,54.77
2018-11-05T05:16:37.925Z,59.60
2018-11-05T05:19:12.287Z,55.87
2018-11-05T05:21:40.869Z,53.07
2018-11-05T05:24:13.697Z,57.37
2018-11-05T05:26:42.212Z,57.63
2018-11-05T05:29:10.577Z,55.23
2018-11-05T05:31:39.221Z,54.00
2018-11-05T05:34:07.943Z,58.97
2018-11-05T05:36:36.179Z,55.73
2018-11-05T05:39:06.210Z,52.27
2018-11-05T05:41:34.787Z,50.23
2018-11-05T05:44:03.048Z,50.10
2018-11-05T05:46:31.635Z,47.93
2018-11-05T05:49:00.178Z,45.30
2018-11-05T05:51:29.406Z,45.63
2018-11-05T05:53:57.997Z,52.47
2018-11-05T05:56:32.602Z,50.07
2018-11-05T05:59:01.204Z,49.53
2018-11-05T06:01:33.384Z,51.50
2018-11-05T06:04:02.252Z,50.50
2018-11-05T06:06:35.959Z,51.70
2018-11-05T06:09:05.935Z,48.20
2018-11-05T06:11:38.817Z,50.00
2018-11-05T06:14:07.963Z,48.20
2018-11-05T06:16:41.092Z,50.40
2018-11-05T06:19:09.349Z,51.13
2018-11-05T06:21:42.566Z,49.57
2018-11-05T06:24:11.592Z,52.70
2018-11-05T06:29:13.681Z,54.97
2018-11-05T06:31:46.601Z,46.43
2018-11-05T06:34:15.031Z,46.93
2018-11-05T06:36:43.632Z,49.70
2018-11-05T06:39:13.730Z,50.33
2018-11-05T06:41:42.537Z,47.60
2018-11-05T06:44:12.995Z,44.87
2018-11-05T06:46:42.010Z,46.60
2018-11-05T06:49:10.334Z,46.83
2018-11-05T06:51:38.960Z,43.63
2018-11-05T06:54:07.900Z,48.00
2018-11-05T06:56:36.551Z,44.83
2018-11-05T06:59:06.595Z,43.90
2018-11-05T07:01:35.603Z,46.73
2018-11-05T07:04:09.725Z,45.30
2018-11-05T07:06:38.324Z,40.03
2018-11-05T07:09:13.578Z,88.73
2018-11-05T07:11:41.858Z,39.37
2018-11-05T07:14:15.291Z,40.13
2018-11-05T07:21:19.247Z,35.47
2018-11-05T07:23:47.878Z,39.87
2018-11-05T07:26:20.476Z,42.33
2018-11-05T07:28:49.085Z,42.10
2018-11-05T07:31:30.340Z,39.07
2018-11-05T07:33:59.180Z,40.90
2018-11-05T07:36:27.762Z,44.97
2018-11-05T07:38:56.280Z,35.43
2018-11-05T07:41:27.982Z,34.57
2018-11-05T07:43:56.567Z,35.73
2018-11-05T07:46:30.337Z,35.57
2018-11-05T07:48:58.637Z,35.40
2018-11-05T07:51:31.773Z,33.60
2018-11-05T07:54:00.673Z,32.83
2018-11-05T07:56:33.631Z,36.87
2018-11-05T07:59:02.941Z,36.73
2018-11-05T08:01:36.921Z,32.17
2018-11-05T08:04:05.364Z,36.07
2018-11-05T08:06:38.288Z,35.63
2018-11-05T08:09:10.607Z,33.10
2018-11-05T08:11:42.868Z,31.70
2018-11-05T08:14:11.941Z,32.57
2018-11-05T08:16:44.922Z,29.47
2018-11-05T08:19:13.766Z,32.47
2018-11-05T08:21:47.718Z,30.70
2018-11-05T08:24:17.052Z,34.93
2018-11-05T08:26:50.131Z,35.80
2018-11-05T08:29:18.415Z,32.87
2018-11-05T08:31:52.281Z,29.13
2018-11-05T08:34:21.032Z,28.63
2018-11-05T08:36:55.016Z,27.20
2018-11-05T08:39:23.736Z,34.80
2018-11-05T08:44:33.457Z,30.30
2018-11-05T08:47:03.009Z,30.57
2018-11-05T08:49:31.295Z,36.07
2018-11-05T08:52:06.135Z,30.90
2018-11-05T08:54:35.440Z,25.77
2018-11-05T08:57:07.924Z,29.53
2018-11-05T08:59:36.183Z,30.50
2018-11-05T09:02:09.950Z,31.17
2018-11-05T09:04:38.657Z,32.57
2018-11-05T09:07:12.703Z,26.17
2018-11-05T09:09:41.370Z,32.00
2018-11-05T09:12:15.059Z,26.40
2018-11-05T09:14:43.372Z,24.50
2018-11-05T09:17:17.135Z,26.07
2018-11-05T09:19:47.873Z,23.07
2018-11-05T09:22:20.675Z,27.60
2018-11-05T09:24:49.300Z,25.10
2018-11-05T09:27:30.412Z,24.23
2018-11-05T09:29:59.548Z,25.83
2018-11-05T09:32:28.203Z,25.40
2018-11-05T09:34:56.821Z,24.43
2018-11-05T09:37:26.785Z,24.23
2018-11-05T09:39:55.257Z,25.77
2018-11-05T09:42:32.211Z,29.13
2018-11-05T09:45:01.191Z,28.73
2018-11-05T09:47:33.179Z,23.33
2018-11-05T09:50:01.863Z,26.90
2018-11-05T09:52:35.576Z,24.53
2018-11-05T09:55:08.262Z,25.23
2018-11-05T09:57:38.337Z,23.87
2018-11-05T10:00:10.531Z,21.23
2018-11-05T10:02:45.199Z,24.07
2018-11-05T10:05:15.216Z,26.03
2018-11-05T10:07:43.913Z,23.30
2018-11-05T10:10:15.223Z,23.23
2018-11-05T10:12:45.077Z,21.50
2018-11-05T10:15:15.621Z,26.27
2018-11-05T10:17:55.458Z,23.33
2018-11-05T10:20:24.743Z,25.83
2018-11-05T10:22:53.584Z,26.63
2018-11-05T10:25:22.721Z,25.20
2018-11-05T10:27:54.235Z,21.07
2018-11-05T10:30:25.291Z,24.77
2018-11-05T10:32:55.791Z,28.07
2018-11-05T10:35:30.999Z,20.93
2018-11-05T10:37:59.275Z,23.00
2018-11-05T10:40:32.865Z,25.17
2018-11-05T10:43:01.878Z,21.53
2018-11-05T10:45:30.499Z,22.27
2018-11-05T10:48:05.018Z,20.43
2018-11-05T10:50:34.248Z,23.50
2018-11-05T10:53:09.316Z,23.40
2018-11-05T10:55:38.038Z,25.23
2018-11-05T10:58:11.034Z,25.87
2018-11-05T11:00:44.659Z,23.50
2018-11-05T11:03:16.500Z,20.70
2018-11-05T11:05:45.200Z,20.37
2018-11-05T11:08:16.636Z,21.40
2018-11-05T11:10:45.667Z,29.00
2018-11-05T11:13:22.767Z,26.03
2018-11-05T11:15:51.119Z,21.10
2018-11-05T11:18:23.429Z,21.83
2018-11-05T11:20:52.042Z,23.87
2018-11-05T11:23:26.227Z,19.27
2018-11-05T11:25:54.524Z,22.83
2018-11-05T11:28:27.714Z,22.10
2018-11-05T11:30:57.166Z,23.00
2018-11-05T11:33:30.497Z,22.83
2018-11-05T11:35:58.784Z,20.37
2018-11-05T11:38:28.940Z,26.43
2018-11-05T11:41:02.829Z,22.87
2018-11-05T11:43:31.370Z,20.60
2018-11-05T11:46:00.401Z,25.40
2018-11-05T11:48:29.043Z,23.00
2018-11-05T11:50:57.415Z,22.27
2018-11-05T11:53:25.793Z,25.27
2018-11-05T11:55:54.652Z,24.00
2018-11-05T11:58:22.939Z,22.03
2018-11-05T12:00:51.314Z,21.97
2018-11-05T12:03:19.867Z,20.43
2018-11-05T12:05:52.845Z,24.57
2018-11-05T12:08:21.374Z,28.27
2018-11-05T12:11:00.817Z,23.63
2018-11-05T12:13:29.184Z,23.90
2018-11-05T12:15:59.391Z,27.53
2018-11-05T12:18:28.961Z,23.13
2018-11-05T12:21:03.246Z,21.63
2018-11-05T12:23:32.365Z,20.70
2018-11-05T12:26:06.013Z,20.17
2018-11-05T12:28:34.840Z,21.17
2018-11-05T12:31:08.093Z,21.10
2018-11-05T12:33:36.785Z,19.60
2018-11-05T12:36:11.194Z,16.97
2018-11-05T12:38:40.209Z,20.90
2018-11-05T12:41:14.173Z,25.43
2018-11-05T12:43:42.442Z,18.37
2018-11-05T12:46:17.440Z,20.23
2018-11-05T12:48:46.343Z,26.40
2018-11-05T12:51:28.583Z,19.20
2018-11-05T12:53:57.212Z,27.70
2018-11-05T12:56:26.342Z,21.87
2018-11-05T12:58:58.791Z,21.87
2018-11-05T13:01:33.198Z,21.03
2018-11-05T13:04:01.499Z,21.03
2018-11-05T13:06:30.097Z,23.10
2018-11-05T13:08:58.397Z,20.27
2018-11-05T13:11:31.326Z,20.30
2018-11-05T13:14:01.539Z,20.87
2018-11-05T13:16:34.334Z,21.33
2018-11-05T13:19:03.043Z,20.63
2018-11-05T13:24:06.424Z,25.30
2018-11-05T13:26:36.379Z,23.17
2018-11-05T13:29:06.195Z,21.13
2018-11-05T13:31:35.572Z,22.77
2018-11-05T13:34:04.576Z,20.27
2018-11-05T13:36:32.904Z,24.03
2018-11-05T13:39:02.348Z,23.47
2018-11-05T13:41:31.245Z,23.13
2018-11-05T13:43:59.559Z,23.93
2018-11-05T13:46:28.224Z,21.17
2018-11-05T13:48:57.109Z,23.10
2018-11-05T13:51:25.285Z,21.40
2018-11-05T13:53:58.428Z,22.43
2018-11-05T13:56:28.333Z,24.50
2018-11-05T13:59:02.358Z,24.40
2018-11-05T14:01:31.155Z,24.50
2018-11-05T14:04:04.608Z,20.93
2018-11-05T14:06:33.230Z,24.17
2018-11-05T14:09:06.646Z,24.00
2018-11-05T14:11:36.316Z,19.17
2018-11-05T14:14:10.163Z,20.93
2018-11-05T14:16:38.946Z,20.87
2018-11-05T14:19:12.765Z,24.90
2018-11-05T14:21:41.433Z,21.00
2018-11-05T14:24:14.755Z,19.33
2018-11-05T14:26:43.488Z,22.37
2018-11-05T14:29:12.136Z,17.63
2018-11-05T14:31:40.924Z,19.43
2018-11-05T14:34:09.218Z,20.60
2018-11-05T14:36:38.895Z,22.50
2018-11-05T14:39:10.650Z,22.50
2018-11-05T14:41:39.372Z,22.30
2018-11-05T14:44:09.063Z,20.53
2018-11-05T14:46:37.688Z,21.10
2018-11-05T14:54:01.591Z,21.30
2018-11-05T14:56:35.894Z,21.50
2018-11-05T14:59:04.670Z,23.03
2018-11-05T15:04:08.017Z,22.73
2018-11-05T15:06:41.888Z,25.73
2018-11-05T15:09:12.365Z,25.10
2018-11-05T15:11:47.482Z,22.57
2018-11-05T15:14:16.410Z,20.00
2018-11-05T15:16:50.139Z,22.93
2018-11-05T15:19:18.796Z,23.60
2018-11-05T15:21:53.878Z,25.00
2018-11-05T15:24:22.716Z,25.57
2018-11-05T15:27:03.491Z,23.33
2018-11-05T15:29:33.226Z,21.77
2018-11-05T15:32:02.028Z,25.13
2018-11-05T15:34:30.321Z,23.17
2018-11-05T15:37:01.700Z,20.10
2018-11-05T15:39:30.808Z,25.47
2018-11-05T15:42:04.519Z,23.93
2018-11-05T15:44:34.151Z,24.17
2018-11-05T15:47:07.481Z,24.33
2018-11-05T15:49:35.780Z,22.50
2018-11-05T15:52:09.904Z,25.97
2018-11-05T15:54:38.176Z,27.10
2018-11-05T15:57:16.448Z,26.83
2018-11-05T15:59:45.129Z,25.77
2018-11-05T16:02:17.809Z,40.53
2018-11-05T16:04:46.585Z,28.50
2018-11-05T16:07:27.694Z,39.07
2018-11-05T16:09:56.414Z,23.83
2018-11-05T16:12:26.066Z,25.93
2018-11-05T16:14:55.482Z,24.17
2018-11-05T16:20:04.587Z,25.63
2018-11-05T16:22:34.289Z,23.33
2018-11-05T16:25:02.902Z,24.40
2018-11-05T16:27:34.765Z,24.70
2018-11-05T16:30:04.492Z,22.97
2018-11-05T16:32:35.703Z,25.23
2018-11-05T16:35:04.219Z,23.90
2018-11-05T16:37:37.216Z,21.00
2018-11-05T16:40:07.012Z,27.77
2018-11-05T16:42:40.169Z,23.70
2018-11-05T16:45:23.935Z,23.10
2018-11-05T16:47:52.820Z,21.10
2018-11-05T16:50:26.008Z,25.43
2018-11-05T16:52:54.614Z,24.27
2018-11-05T16:55:23.132Z,22.73
2018-11-05T16:57:51.830Z,24.43
2018-11-05T17:00:21.434Z,21.37
2018-11-05T17:03:03.037Z,19.57
2018-11-05T17:05:31.769Z,24.00
2018-11-05T17:08:00.077Z,24.83
2018-11-05T17:10:29.702Z,22.10
2018-11-05T17:13:32.794Z,23.10
2018-11-05T17:16:05.732Z,41.90
2018-11-05T17:18:34.644Z,27.30
2018-11-05T17:21:16.893Z,23.20
2018-11-05T17:23:45.812Z,25.17
2018-11-05T17:26:14.917Z,25.90
2018-11-05T17:28:43.529Z,23.33
2018-11-05T17:31:16.174Z,22.70
2018-11-05T17:33:45.473Z,23.93
2018-11-05T17:36:17.756Z,20.93
2018-11-05T17:38:46.019Z,23.03
2018-11-05T17:41:20.636Z,24.63
2018-11-05T17:43:49.225Z,21.80
2018-11-05T17:46:23.381Z,26.90
2018-11-05T17:48:52.098Z,25.37
2018-11-05T17:51:25.486Z,32.70
2018-11-05T17:53:53.754Z,28.30
2018-11-05T17:56:26.975Z,32.80
2018-11-05T17:58:55.915Z,24.40
2018-11-05T18:01:30.428Z,24.70
2018-11-05T18:03:59.771Z,25.83
2018-11-05T18:06:35.604Z,28.23
2018-11-05T18:09:05.741Z,24.23
2018-11-05T18:11:38.076Z,23.97
2018-11-05T18:14:06.790Z,28.40
2018-11-05T18:16:41.704Z,25.50
2018-11-05T18:19:10.080Z,26.93
2018-11-05T18:21:43.267Z,29.57
2018-11-05T18:24:13.566Z,26.60
2018-11-05T18:26:50.627Z,24.30
2018-11-05T18:29:19.283Z,27.20
2018-11-05T18:31:50.572Z,28.93
2018-11-05T18:34:19.220Z,28.60
2018-11-05T18:36:52.684Z,27.40
2018-11-05T18:39:21.620Z,28.07
2018-11-05T18:41:55.094Z,26.00
2018-11-05T18:44:23.417Z,28.07
2018-11-05T18:46:52.076Z,29.50
2018-11-05T18:49:21.813Z,26.13
2018-11-05T18:51:50.834Z,31.60
2018-11-05T18:54:19.007Z,26.03
2018-11-05T18:56:54.074Z,28.33
2018-11-05T18:59:22.724Z,28.20
2018-11-05T19:01:51.382Z,27.97
2018-11-05T19:04:19.919Z,29.37
2018-11-05T19:06:48.783Z,28.00
2018-11-05T19:09:17.462Z,30.40
2018-11-05T19:11:45.804Z,26.07
2018-11-05T19:14:19.386Z,27.27
2018-11-05T19:16:48.451Z,29.13
2018-11-05T19:19:20.950Z,28.40
2018-11-05T19:21:49.615Z,32.47
2018-11-05T19:24:26.496Z,29.17
2018-11-05T19:26:55.942Z,29.03
2018-11-05T19:29:27.526Z,33.80
2018-11-05T19:31:59.210Z,29.13
2018-11-05T19:34:41.514Z,29.40
2018-11-05T19:37:11.255Z,25.87
2018-11-05T19:39:39.624Z,26.53
2018-11-05T19:42:08.027Z,31.47
2018-11-05T19:44:36.802Z,35.27
2018-11-05T19:47:05.549Z,30.80
2018-11-05T19:49:39.726Z,34.67
2018-11-05T19:52:08.773Z,29.17
2018-11-05T19:54:42.505Z,28.87
2018-11-05T19:57:10.940Z,29.43
2018-11-05T19:59:44.303Z,27.90
2018-11-05T20:02:12.631Z,31.50
2018-11-05T20:07:15.424Z,26.97
2018-11-05T20:09:47.757Z,27.50
2018-11-05T20:12:21.158Z,27.60
2018-11-05T20:14:53.917Z,40.90
2018-11-05T20:17:23.519Z,76.83
2018-11-05T20:20:02.010Z,89.80
2018-11-05T20:22:31.551Z,40.33
2018-11-05T20:25:03.123Z,69.47
2018-11-05T20:27:32.225Z,51.90
2018-11-05T20:30:04.845Z,51.70
2018-11-05T20:32:34.193Z,44.47
2018-11-05T20:35:07.273Z,43.40
2018-11-05T20:37:37.779Z,41.83
2018-11-05T20:40:14.057Z,38.33
2018-11-05T20:42:44.134Z,38.47
2018-11-05T20:45:17.507Z,34.63
2018-11-05T20:47:45.844Z,39.90
2018-11-05T20:50:17.625Z,37.07
2018-11-05T20:52:47.164Z,41.03
2018-11-05T20:55:19.860Z,36.07
2018-11-05T20:57:48.613Z,28.97
2018-11-05T21:00:22.488Z,34.33
2018-11-05T21:02:51.176Z,28.33
2018-11-05T21:05:24.060Z,28.00
2018-11-05T21:07:52.689Z,29.80
2018-11-05T21:10:22.841Z,30.30
2018-11-05T21:12:52.511Z,31.70
2018-11-05T21:15:21.909Z,28.17
2018-11-05T21:17:51.028Z,30.83
2018-11-05T21:20:20.502Z,35.40
2018-11-05T21:22:51.588Z,26.60
2018-11-05T21:25:20.562Z,24.43
2018-11-05T21:27:49.221Z,24.07
2018-11-05T21:30:19.111Z,25.40
2018-11-05T21:32:47.860Z,32.67
2018-11-05T21:35:18.626Z,26.07
2018-11-05T21:37:47.296Z,22.30
2018-11-05T21:40:17.722Z,25.23
2018-11-05T21:42:48.273Z,26.77
2018-11-05T21:45:17.244Z,21.20
2018-11-05T21:47:50.718Z,23.23
2018-11-05T21:50:19.739Z,26.30
2018-11-05T21:52:53.018Z,26.27
2018-11-05T21:55:22.510Z,27.20
2018-11-05T21:57:55.849Z,24.57
2018-11-05T22:00:25.152Z,27.27
2018-11-05T22:03:01.304Z,31.67
2018-11-05T22:05:29.730Z,28.80
2018-11-05T22:08:02.502Z,25.43
2018-11-05T22:10:32.384Z,37.20
2018-11-05T22:13:05.697Z,28.17
2018-11-05T22:15:40.738Z,30.50
2018-11-05T22:18:10.013Z,28.77
2018-11-05T22:20:38.603Z,30.13
2018-11-05T22:23:12.021Z,32.27
2018-11-05T22:25:40.657Z,30.97
2018-11-05T22:30:43.481Z,29.23
2018-11-05T22:33:15.090Z,26.07
2018-11-05T22:35:44.587Z,23.57
2018-11-05T22:38:13.388Z,25.30
2018-11-05T22:40:41.636Z,25.57
2018-11-05T22:43:10.532Z,25.17
2018-11-05T22:45:39.170Z,23.73
2018-11-05T22:48:07.804Z,22.13
2018-11-05T22:50:36.461Z,22.67
2018-11-05T22:53:05.996Z,21.37
2018-11-05T22:55:35.021Z,25.67
2018-11-05T22:58:03.677Z,22.13
2018-11-05T23:00:40.822Z,25.50
2018-11-05T23:03:14.738Z,21.37
2018-11-05T23:05:44.024Z,23.40
2018-11-05T23:08:12.971Z,23.80
2018-11-05T23:10:41.960Z,22.07
2018-11-05T23:13:10.617Z,23.43
2018-11-05T23:15:43.971Z,26.23
2018-11-05T23:18:12.562Z,23.57
2018-11-05T23:20:45.300Z,22.40
2018-11-05T23:23:14.552Z,25.27
2018-11-05T23:25:44.423Z,22.40
2018-11-05T23:28:14.776Z,24.33
2018-11-05T23:30:43.402Z,22.73
2018-11-05T23:33:12.116Z,28.37
2018-11-05T23:35:40.759Z,21.50
2018-11-05T23:38:09.041Z,20.93
2018-11-05T23:40:38.093Z,23.47
2018-11-05T23:43:06.742Z,22.37
2018-11-05T23:45:34.989Z,24.23
2018-11-05T23:48:05.935Z,21.63
2018-11-05T23:50:34.513Z,20.23
2018-11-05T23:53:07.653Z,24.87
2018-11-05T23:55:36.596Z,23.20
2018-11-05T23:58:09.228Z,26.47
